sensor_id;sensor_type;location;lat;lon;timestamp;temperature;humidity
7846;DHT22;3968;51.424;6.788;2022-09-09T00:02:20;15.40;99.90
7846;DHT22;3968;51.424;6.788;2022-09-09T00:15:34;15.40;99.90
7846;DHT22;3968;51.424;6.788;2022-09-09T00:18:25;15.30;99.90
7846;DHT22;3968;51.424;6.788;2022-09-09T00:21:13;15.30;99.90
7846;DHT22;3968;51.424;6.788;2022-09-09T00:23:51;15.30;99.90
7846;DHT22;3968;51.424;6.788;2022-09-09T00:26:47;15.30;99.90
7846;DHT22;3968;51.424;6.788;2022-09-09T00:29:45;15.30;99.90
7846;DHT22;3968;51.424;6.788;2022-09-09T00:32:17;15.20;99.90
7846;DHT22;3968;51.424;6.788;2022-09-09T00:35:42;15.20;99.90
7846;DHT22;3968;51.424;6.788;2022-09-09T00:37:42;15.20;99.90
7846;DHT22;3968;51.424;6.788;2022-09-09T00:40:32;15.20;99.90
7846;DHT22;3968;51.424;6.788;2022-09-09T00:43:29;15.30;99.90
7846;DHT22;3968;51.424;6.788;2022-09-09T00:46:38;15.20;99.90
7846;DHT22;3968;51.424;6.788;2022-09-09T00:49:28;15.20;99.90
7846;DHT22;3968;51.424;6.788;2022-09-09T00:52:08;15.20;99.90
7846;DHT22;3968;51.424;6.788;2022-09-09T00:57:30;15.20;99.90
7846;DHT22;3968;51.424;6.788;2022-09-09T01:08:28;15.30;99.90
7846;DHT22;3968;51.424;6.788;2022-09-09T01:11:00;15.20;99.90
7846;DHT22;3968;51.424;6.788;2022-09-09T01:13:33;15.20;99.90
7846;DHT22;3968;51.424;6.788;2022-09-09T01:16:04;15.20;99.90
7846;DHT22;3968;51.424;6.788;2022-09-09T01:18:37;15.10;99.90
7846;DHT22;3968;51.424;6.788;2022-09-09T01:24:14;15.10;99.90
7846;DHT22;3968;51.424;6.788;2022-09-09T01:26:45;15.10;99.90
7846;DHT22;3968;51.424;6.788;2022-09-09T01:29:16;15.10;99.90
7846;DHT22;3968;51.424;6.788;2022-09-09T01:31:53;15.00;99.90
7846;DHT22;3968;51.424;6.788;2022-09-09T01:34:19;15.00;99.90
7846;DHT22;3968;51.424;6.788;2022-09-09T01:39:11;15.00;99.90
7846;DHT22;3968;51.424;6.788;2022-09-09T01:41:37;15.00;99.90
7846;DHT22;3968;51.424;6.788;2022-09-09T01:44:03;15.00;99.90
7846;DHT22;3968;51.424;6.788;2022-09-09T01:46:29;14.90;99.90
7846;DHT22;3968;51.424;6.788;2022-09-09T01:48:57;14.80;99.90
7846;DHT22;3968;51.424;6.788;2022-09-09T01:51:24;14.80;99.90
7846;DHT22;3968;51.424;6.788;2022-09-09T01:53:50;14.80;99.90
7846;DHT22;3968;51.424;6.788;2022-09-09T01:56:35;14.90;99.90
7846;DHT22;3968;51.424;6.788;2022-09-09T01:59:25;14.90;99.90
7846;DHT22;3968;51.424;6.788;2022-09-09T02:04:43;14.90;99.90
7846;DHT22;3968;51.424;6.788;2022-09-09T02:09:59;14.90;99.90
7846;DHT22;3968;51.424;6.788;2022-09-09T02:12:27;14.90;99.90
7846;DHT22;3968;51.424;6.788;2022-09-09T02:15:03;15.00;99.90
7846;DHT22;3968;51.424;6.788;2022-09-09T02:17:35;15.00;99.90
7846;DHT22;3968;51.424;6.788;2022-09-09T02:20:13;15.10;99.90
7846;DHT22;3968;51.424;6.788;2022-09-09T02:22:42;15.10;99.90
7846;DHT22;3968;51.424;6.788;2022-09-09T02:25:12;15.20;99.90
7846;DHT22;3968;51.424;6.788;2022-09-09T02:27:41;15.30;99.90
7846;DHT22;3968;51.424;6.788;2022-09-09T02:30:09;15.40;99.90
7846;DHT22;3968;51.424;6.788;2022-09-09T02:32:36;15.40;99.90
7846;DHT22;3968;51.424;6.788;2022-09-09T02:35:09;15.50;99.90
7846;DHT22;3968;51.424;6.788;2022-09-09T02:37:38;15.50;99.90
7846;DHT22;3968;51.424;6.788;2022-09-09T02:40:06;15.50;99.90
7846;DHT22;3968;51.424;6.788;2022-09-09T02:42:39;15.40;99.90
7846;DHT22;3968;51.424;6.788;2022-09-09T02:45:06;15.50;99.90
7846;DHT22;3968;51.424;6.788;2022-09-09T02:47:35;15.50;99.90
7846;DHT22;3968;51.424;6.788;2022-09-09T02:50:23;15.50;99.90
7846;DHT22;3968;51.424;6.788;2022-09-09T02:53:24;15.50;99.90
7846;DHT22;3968;51.424;6.788;2022-09-09T02:55:56;15.40;99.90
7846;DHT22;3968;51.424;6.788;2022-09-09T02:58:23;15.40;99.90
7846;DHT22;3968;51.424;6.788;2022-09-09T03:00:50;15.40;99.90
7846;DHT22;3968;51.424;6.788;2022-09-09T03:03:17;15.40;99.90
7846;DHT22;3968;51.424;6.788;2022-09-09T03:05:44;15.40;99.90
7846;DHT22;3968;51.424;6.788;2022-09-09T03:08:11;15.40;99.90
7846;DHT22;3968;51.424;6.788;2022-09-09T03:10:36;15.40;99.90
7846;DHT22;3968;51.424;6.788;2022-09-09T03:13:03;15.40;99.90
7846;DHT22;3968;51.424;6.788;2022-09-09T03:15:31;15.40;99.90
7846;DHT22;3968;51.424;6.788;2022-09-09T03:17:57;15.40;99.90
7846;DHT22;3968;51.424;6.788;2022-09-09T03:20:24;15.50;99.90
7846;DHT22;3968;51.424;6.788;2022-09-09T03:22:52;15.50;99.90
7846;DHT22;3968;51.424;6.788;2022-09-09T03:25:18;15.50;99.90
7846;DHT22;3968;51.424;6.788;2022-09-09T03:30:10;15.60;99.90
7846;DHT22;3968;51.424;6.788;2022-09-09T03:32:36;15.60;99.90
7846;DHT22;3968;51.424;6.788;2022-09-09T03:35:02;15.50;99.90
7846;DHT22;3968;51.424;6.788;2022-09-09T03:37:28;15.50;99.90
7846;DHT22;3968;51.424;6.788;2022-09-09T03:39:54;15.50;99.90
7846;DHT22;3968;51.424;6.788;2022-09-09T03:42:20;15.40;99.90
7846;DHT22;3968;51.424;6.788;2022-09-09T03:44:46;15.40;99.90
7846;DHT22;3968;51.424;6.788;2022-09-09T03:47:16;15.30;99.90
7846;DHT22;3968;51.424;6.788;2022-09-09T03:49:41;15.30;99.90
7846;DHT22;3968;51.424;6.788;2022-09-09T03:52:08;15.30;99.90
7846;DHT22;3968;51.424;6.788;2022-09-09T03:54:34;15.40;99.90
7846;DHT22;3968;51.424;6.788;2022-09-09T03:57:01;15.30;99.90
7846;DHT22;3968;51.424;6.788;2022-09-09T03:59:27;15.30;99.90
7846;DHT22;3968;51.424;6.788;2022-09-09T04:01:52;15.20;99.90
7846;DHT22;3968;51.424;6.788;2022-09-09T04:04:18;15.30;99.90
7846;DHT22;3968;51.424;6.788;2022-09-09T04:06:45;15.30;99.90
7846;DHT22;3968;51.424;6.788;2022-09-09T04:09:11;15.30;99.90
7846;DHT22;3968;51.424;6.788;2022-09-09T04:11:37;15.20;99.90
7846;DHT22;3968;51.424;6.788;2022-09-09T04:14:03;15.20;99.90
7846;DHT22;3968;51.424;6.788;2022-09-09T04:16:32;15.20;99.90
7846;DHT22;3968;51.424;6.788;2022-09-09T04:18:58;15.20;99.90
7846;DHT22;3968;51.424;6.788;2022-09-09T04:21:26;15.20;99.90
7846;DHT22;3968;51.424;6.788;2022-09-09T04:23:52;15.20;99.90
7846;DHT22;3968;51.424;6.788;2022-09-09T04:26:18;15.30;99.90
7846;DHT22;3968;51.424;6.788;2022-09-09T04:28:43;15.20;99.90
7846;DHT22;3968;51.424;6.788;2022-09-09T04:31:18;15.40;99.90
7846;DHT22;3968;51.424;6.788;2022-09-09T04:33:45;15.40;99.90
7846;DHT22;3968;51.424;6.788;2022-09-09T04:36:12;15.40;99.90
7846;DHT22;3968;51.424;6.788;2022-09-09T04:38:38;15.50;99.90
7846;DHT22;3968;51.424;6.788;2022-09-09T04:41:04;15.50;99.90
7846;DHT22;3968;51.424;6.788;2022-09-09T04:43:30;15.60;99.90
7846;DHT22;3968;51.424;6.788;2022-09-09T04:45:56;15.60;99.90
7846;DHT22;3968;51.424;6.788;2022-09-09T04:48:21;15.70;99.90
7846;DHT22;3968;51.424;6.788;2022-09-09T04:51:02;15.70;99.90
7846;DHT22;3968;51.424;6.788;2022-09-09T04:53:29;15.70;99.90
7846;DHT22;3968;51.424;6.788;2022-09-09T04:56:12;15.70;99.90
7846;DHT22;3968;51.424;6.788;2022-09-09T04:58:39;15.70;99.90
7846;DHT22;3968;51.424;6.788;2022-09-09T05:01:17;15.70;99.90
7846;DHT22;3968;51.424;6.788;2022-09-09T05:03:43;15.70;99.90
7846;DHT22;3968;51.424;6.788;2022-09-09T05:06:13;15.80;99.90
7846;DHT22;3968;51.424;6.788;2022-09-09T05:08:40;15.80;99.90
7846;DHT22;3968;51.424;6.788;2022-09-09T05:13:41;15.80;99.90
7846;DHT22;3968;51.424;6.788;2022-09-09T05:16:07;15.80;99.90
7846;DHT22;3968;51.424;6.788;2022-09-09T05:18:39;15.80;99.90
7846;DHT22;3968;51.424;6.788;2022-09-09T05:21:06;15.80;99.90
7846;DHT22;3968;51.424;6.788;2022-09-09T05:23:35;15.80;99.90
7846;DHT22;3968;51.424;6.788;2022-09-09T05:26:01;15.90;99.90
7846;DHT22;3968;51.424;6.788;2022-09-09T05:28:27;15.90;99.90
7846;DHT22;3968;51.424;6.788;2022-09-09T05:31:01;15.90;99.90
7846;DHT22;3968;51.424;6.788;2022-09-09T05:33:31;15.90;99.90
7846;DHT22;3968;51.424;6.788;2022-09-09T05:36:02;15.90;99.90
7846;DHT22;3968;51.424;6.788;2022-09-09T05:38:29;15.90;99.90
7846;DHT22;3968;51.424;6.788;2022-09-09T05:40:55;15.90;99.90
7846;DHT22;3968;51.424;6.788;2022-09-09T05:43:22;15.80;99.90
7846;DHT22;3968;51.424;6.788;2022-09-09T05:45:57;15.80;99.90
7846;DHT22;3968;51.424;6.788;2022-09-09T05:48:23;15.80;99.90
7846;DHT22;3968;51.424;6.788;2022-09-09T05:50:53;15.90;99.90
7846;DHT22;3968;51.424;6.788;2022-09-09T05:53:19;15.90;99.90
7846;DHT22;3968;51.424;6.788;2022-09-09T05:55:45;16.00;99.90
7846;DHT22;3968;51.424;6.788;2022-09-09T05:58:11;16.00;99.90
7846;DHT22;3968;51.424;6.788;2022-09-09T06:00:37;16.00;99.90
7846;DHT22;3968;51.424;6.788;2022-09-09T06:03:03;16.10;99.90
7846;DHT22;3968;51.424;6.788;2022-09-09T06:05:29;16.10;99.90
7846;DHT22;3968;51.424;6.788;2022-09-09T06:07:55;16.20;99.90
7846;DHT22;3968;51.424;6.788;2022-09-09T06:10:22;16.20;99.90
7846;DHT22;3968;51.424;6.788;2022-09-09T06:12:47;16.30;99.90
7846;DHT22;3968;51.424;6.788;2022-09-09T06:15:13;16.40;99.90
7846;DHT22;3968;51.424;6.788;2022-09-09T06:17:38;16.40;99.90
7846;DHT22;3968;51.424;6.788;2022-09-09T06:20:05;16.50;99.90
7846;DHT22;3968;51.424;6.788;2022-09-09T06:22:31;16.40;99.90
7846;DHT22;3968;51.424;6.788;2022-09-09T06:24:56;16.50;99.90
7846;DHT22;3968;51.424;6.788;2022-09-09T06:27:22;16.60;99.90
7846;DHT22;3968;51.424;6.788;2022-09-09T06:29:48;16.60;99.90
7846;DHT22;3968;51.424;6.788;2022-09-09T06:32:13;16.70;99.90
7846;DHT22;3968;51.424;6.788;2022-09-09T06:34:39;16.80;99.90
7846;DHT22;3968;51.424;6.788;2022-09-09T06:37:05;16.80;99.90
7846;DHT22;3968;51.424;6.788;2022-09-09T06:39:32;16.90;99.90
7846;DHT22;3968;51.424;6.788;2022-09-09T06:41:57;16.90;99.90
7846;DHT22;3968;51.424;6.788;2022-09-09T06:44:24;16.90;99.90
7846;DHT22;3968;51.424;6.788;2022-09-09T06:46:52;16.90;99.90
7846;DHT22;3968;51.424;6.788;2022-09-09T06:49:18;16.90;99.90
7846;DHT22;3968;51.424;6.788;2022-09-09T06:51:44;16.90;99.90
7846;DHT22;3968;51.424;6.788;2022-09-09T06:54:10;16.90;99.90
7846;DHT22;3968;51.424;6.788;2022-09-09T06:56:40;16.90;99.90
7846;DHT22;3968;51.424;6.788;2022-09-09T06:59:09;16.90;99.90
7846;DHT22;3968;51.424;6.788;2022-09-09T07:01:37;17.00;99.90
7846;DHT22;3968;51.424;6.788;2022-09-09T07:04:04;17.10;99.90
7846;DHT22;3968;51.424;6.788;2022-09-09T07:06:34;17.00;99.90
7846;DHT22;3968;51.424;6.788;2022-09-09T07:09:03;17.10;99.90
7846;DHT22;3968;51.424;6.788;2022-09-09T07:11:31;17.10;99.90
7846;DHT22;3968;51.424;6.788;2022-09-09T07:13:58;17.20;99.90
7846;DHT22;3968;51.424;6.788;2022-09-09T07:16:25;17.30;99.90
7846;DHT22;3968;51.424;6.788;2022-09-09T07:18:54;17.40;99.90
7846;DHT22;3968;51.424;6.788;2022-09-09T07:21:27;17.50;99.90
7846;DHT22;3968;51.424;6.788;2022-09-09T07:23:53;17.60;99.90
7846;DHT22;3968;51.424;6.788;2022-09-09T07:26:22;17.80;99.90
7846;DHT22;3968;51.424;6.788;2022-09-09T07:28:48;17.90;99.90
7846;DHT22;3968;51.424;6.788;2022-09-09T07:31:30;17.90;99.90
7846;DHT22;3968;51.424;6.788;2022-09-09T07:33:56;17.80;99.90
7846;DHT22;3968;51.424;6.788;2022-09-09T07:36:34;17.90;99.90
7846;DHT22;3968;51.424;6.788;2022-09-09T07:39:03;17.90;99.90
7846;DHT22;3968;51.424;6.788;2022-09-09T07:41:33;18.00;99.90
7846;DHT22;3968;51.424;6.788;2022-09-09T07:44:03;17.90;99.90
7846;DHT22;3968;51.424;6.788;2022-09-09T07:46:29;18.00;99.90
7846;DHT22;3968;51.424;6.788;2022-09-09T07:48:56;18.00;99.90
7846;DHT22;3968;51.424;6.788;2022-09-09T07:51:33;17.90;99.90
7846;DHT22;3968;51.424;6.788;2022-09-09T07:54:01;17.80;99.90
7846;DHT22;3968;51.424;6.788;2022-09-09T07:56:28;17.70;99.90
7846;DHT22;3968;51.424;6.788;2022-09-09T07:58:56;17.70;99.90
7846;DHT22;3968;51.424;6.788;2022-09-09T08:01:27;17.70;99.90
7846;DHT22;3968;51.424;6.788;2022-09-09T08:04:04;17.80;99.90
7846;DHT22;3968;51.424;6.788;2022-09-09T08:06:34;18.10;99.90
7846;DHT22;3968;51.424;6.788;2022-09-09T08:09:00;18.20;99.90
7846;DHT22;3968;51.424;6.788;2022-09-09T08:11:28;18.30;99.90
7846;DHT22;3968;51.424;6.788;2022-09-09T08:13:55;18.30;99.90
7846;DHT22;3968;51.424;6.788;2022-09-09T08:16:23;18.30;99.90
7846;DHT22;3968;51.424;6.788;2022-09-09T08:18:50;18.30;99.90
7846;DHT22;3968;51.424;6.788;2022-09-09T08:21:22;18.70;99.90
7846;DHT22;3968;51.424;6.788;2022-09-09T08:23:51;18.90;99.90
7846;DHT22;3968;51.424;6.788;2022-09-09T08:26:19;19.10;99.90
7846;DHT22;3968;51.424;6.788;2022-09-09T08:28:52;19.20;99.90
7846;DHT22;3968;51.424;6.788;2022-09-09T08:33:44;19.20;99.90
7846;DHT22;3968;51.424;6.788;2022-09-09T08:36:17;19.00;99.90
7846;DHT22;3968;51.424;6.788;2022-09-09T08:38:46;19.10;99.90
7846;DHT22;3968;51.424;6.788;2022-09-09T08:43:48;19.20;99.90
7846;DHT22;3968;51.424;6.788;2022-09-09T08:46:33;19.30;99.90
7846;DHT22;3968;51.424;6.788;2022-09-09T08:49:13;19.30;99.90
7846;DHT22;3968;51.424;6.788;2022-09-09T08:51:41;19.40;99.90
7846;DHT22;3968;51.424;6.788;2022-09-09T08:54:08;19.50;99.90
7846;DHT22;3968;51.424;6.788;2022-09-09T08:56:35;20.20;99.90
7846;DHT22;3968;51.424;6.788;2022-09-09T08:59:02;20.20;99.90
7846;DHT22;3968;51.424;6.788;2022-09-09T09:01:57;20.80;99.90
7846;DHT22;3968;51.424;6.788;2022-09-09T09:07:59;20.20;99.90
7846;DHT22;3968;51.424;6.788;2022-09-09T09:13:15;19.70;99.90
7846;DHT22;3968;51.424;6.788;2022-09-09T09:15:42;19.50;99.90
7846;DHT22;3968;51.424;6.788;2022-09-09T09:18:10;19.40;99.90
7846;DHT22;3968;51.424;6.788;2022-09-09T09:21:10;19.30;99.90
7846;DHT22;3968;51.424;6.788;2022-09-09T09:23:55;19.30;99.90
7846;DHT22;3968;51.424;6.788;2022-09-09T09:26:25;19.50;99.90
7846;DHT22;3968;51.424;6.788;2022-09-09T09:28:55;20.10;99.90
7846;DHT22;3968;51.424;6.788;2022-09-09T09:31:22;20.20;99.90
7846;DHT22;3968;51.424;6.788;2022-09-09T09:33:56;20.20;99.90
7846;DHT22;3968;51.424;6.788;2022-09-09T09:36:37;20.10;99.90
7846;DHT22;3968;51.424;6.788;2022-09-09T09:39:04;19.90;99.90
7846;DHT22;3968;51.424;6.788;2022-09-09T09:41:36;19.50;99.90
7846;DHT22;3968;51.424;6.788;2022-09-09T09:44:03;19.40;99.90
7846;DHT22;3968;51.424;6.788;2022-09-09T09:46:32;19.40;99.90
7846;DHT22;3968;51.424;6.788;2022-09-09T09:49:05;19.60;99.90
7846;DHT22;3968;51.424;6.788;2022-09-09T09:51:32;19.70;99.90
7846;DHT22;3968;51.424;6.788;2022-09-09T09:54:29;19.80;99.90
7846;DHT22;3968;51.424;6.788;2022-09-09T09:56:55;19.80;99.90
7846;DHT22;3968;51.424;6.788;2022-09-09T09:59:32;19.80;99.90
7846;DHT22;3968;51.424;6.788;2022-09-09T10:02:19;20.50;99.90
7846;DHT22;3968;51.424;6.788;2022-09-09T10:04:45;21.30;99.90
7846;DHT22;3968;51.424;6.788;2022-09-09T10:07:31;22.00;99.90
7846;DHT22;3968;51.424;6.788;2022-09-09T10:09:58;23.40;99.90
7846;DHT22;3968;51.424;6.788;2022-09-09T10:12:52;23.40;99.90
7846;DHT22;3968;51.424;6.788;2022-09-09T10:21:02;22.60;99.90
7846;DHT22;3968;51.424;6.788;2022-09-09T10:34:47;20.40;99.90
7846;DHT22;3968;51.424;6.788;2022-09-09T10:42:43;20.20;99.90
7846;DHT22;3968;51.424;6.788;2022-09-09T10:45:20;20.10;99.90
7846;DHT22;3968;51.424;6.788;2022-09-09T10:51:23;19.90;99.90
7846;DHT22;3968;51.424;6.788;2022-09-09T10:56:42;20.00;99.90
7846;DHT22;3968;51.424;6.788;2022-09-09T10:59:18;19.90;99.90
7846;DHT22;3968;51.424;6.788;2022-09-09T11:02:02;20.10;99.90
7846;DHT22;3968;51.424;6.788;2022-09-09T11:04:33;20.20;99.90
7846;DHT22;3968;51.424;6.788;2022-09-09T11:07:06;20.40;99.90
7846;DHT22;3968;51.424;6.788;2022-09-09T11:09:37;20.50;99.90
7846;DHT22;3968;51.424;6.788;2022-09-09T11:12:13;20.50;99.90
7846;DHT22;3968;51.424;6.788;2022-09-09T11:14:55;20.40;99.90
7846;DHT22;3968;51.424;6.788;2022-09-09T11:17:44;20.30;99.90
7846;DHT22;3968;51.424;6.788;2022-09-09T11:20:13;20.30;99.90
7846;DHT22;3968;51.424;6.788;2022-09-09T11:22:58;20.10;99.90
7846;DHT22;3968;51.424;6.788;2022-09-09T11:25:39;20.10;99.90
7846;DHT22;3968;51.424;6.788;2022-09-09T11:38:48;20.80;99.90
7846;DHT22;3968;51.424;6.788;2022-09-09T11:41:18;21.10;99.90
7846;DHT22;3968;51.424;6.788;2022-09-09T11:43:48;22.10;99.90
7846;DHT22;3968;51.424;6.788;2022-09-09T11:46:22;21.80;99.90
7846;DHT22;3968;51.424;6.788;2022-09-09T11:49:00;21.60;99.90
7846;DHT22;3968;51.424;6.788;2022-09-09T11:51:28;21.10;99.90
7846;DHT22;3968;51.424;6.788;2022-09-09T11:54:21;21.00;99.90
7846;DHT22;3968;51.424;6.788;2022-09-09T11:56:48;20.80;99.90
7846;DHT22;3968;51.424;6.788;2022-09-09T11:59:23;20.80;99.90
7846;DHT22;3968;51.424;6.788;2022-09-09T12:10:26;20.50;99.90
7846;DHT22;3968;51.424;6.788;2022-09-09T12:12:52;20.40;99.90
7846;DHT22;3968;51.424;6.788;2022-09-09T12:15:27;20.30;99.90
7846;DHT22;3968;51.424;6.788;2022-09-09T12:17:56;20.30;99.90
7846;DHT22;3968;51.424;6.788;2022-09-09T12:20:36;20.20;99.90
7846;DHT22;3968;51.424;6.788;2022-09-09T12:33:47;20.90;99.90
7846;DHT22;3968;51.424;6.788;2022-09-09T12:36:52;20.50;99.90
7846;DHT22;3968;51.424;6.788;2022-09-09T12:39:18;20.30;99.90
7846;DHT22;3968;51.424;6.788;2022-09-09T12:41:52;19.80;99.90
7846;DHT22;3968;51.424;6.788;2022-09-09T12:44:23;18.90;99.90
7846;DHT22;3968;51.424;6.788;2022-09-09T12:46:49;18.40;99.90
7846;DHT22;3968;51.424;6.788;2022-09-09T12:49:31;18.00;99.90
7846;DHT22;3968;51.424;6.788;2022-09-09T12:52:02;17.80;99.90
7846;DHT22;3968;51.424;6.788;2022-09-09T12:54:31;17.70;99.90
7846;DHT22;3968;51.424;6.788;2022-09-09T12:56:57;17.50;99.90
7846;DHT22;3968;51.424;6.788;2022-09-09T12:59:26;17.30;99.90
7846;DHT22;3968;51.424;6.788;2022-09-09T13:01:58;17.30;99.90
7846;DHT22;3968;51.424;6.788;2022-09-09T13:04:25;17.20;99.90
7846;DHT22;3968;51.424;6.788;2022-09-09T13:06:50;17.10;99.90
7846;DHT22;3968;51.424;6.788;2022-09-09T13:09:18;17.00;99.90
7846;DHT22;3968;51.424;6.788;2022-09-09T13:11:49;16.70;99.90
7846;DHT22;3968;51.424;6.788;2022-09-09T13:14:30;16.60;99.90
7846;DHT22;3968;51.424;6.788;2022-09-09T13:16:59;16.60;99.90
7846;DHT22;3968;51.424;6.788;2022-09-09T13:19:26;16.80;99.90
7846;DHT22;3968;51.424;6.788;2022-09-09T13:21:54;16.80;99.90
7846;DHT22;3968;51.424;6.788;2022-09-09T13:24:33;17.00;99.90
7846;DHT22;3968;51.424;6.788;2022-09-09T13:27:05;17.30;99.90
7846;DHT22;3968;51.424;6.788;2022-09-09T13:29:52;17.60;99.90
7846;DHT22;3968;51.424;6.788;2022-09-09T13:32:20;17.80;99.90
7846;DHT22;3968;51.424;6.788;2022-09-09T13:34:57;17.90;99.90
7846;DHT22;3968;51.424;6.788;2022-09-09T13:37:35;18.00;99.90
7846;DHT22;3968;51.424;6.788;2022-09-09T13:40:03;18.10;99.90
7846;DHT22;3968;51.424;6.788;2022-09-09T13:42:33;18.50;99.90
7846;DHT22;3968;51.424;6.788;2022-09-09T13:45:03;18.60;99.90
7846;DHT22;3968;51.424;6.788;2022-09-09T13:47:35;18.70;99.90
7846;DHT22;3968;51.424;6.788;2022-09-09T13:50:20;18.80;99.90
7846;DHT22;3968;51.424;6.788;2022-09-09T13:52:47;18.90;99.90
7846;DHT22;3968;51.424;6.788;2022-09-09T13:55:14;19.10;99.90
7846;DHT22;3968;51.424;6.788;2022-09-09T13:57:53;19.40;99.90
7846;DHT22;3968;51.424;6.788;2022-09-09T14:00:20;19.50;99.90
7846;DHT22;3968;51.424;6.788;2022-09-09T14:02:46;19.50;99.90
7846;DHT22;3968;51.424;6.788;2022-09-09T14:05:12;19.70;99.90
7846;DHT22;3968;51.424;6.788;2022-09-09T14:07:39;19.80;99.90
7846;DHT22;3968;51.424;6.788;2022-09-09T14:10:06;19.90;99.90
7846;DHT22;3968;51.424;6.788;2022-09-09T14:12:32;19.90;99.90
7846;DHT22;3968;51.424;6.788;2022-09-09T14:14:57;19.70;99.90
7846;DHT22;3968;51.424;6.788;2022-09-09T14:17:25;19.70;99.90
7846;DHT22;3968;51.424;6.788;2022-09-09T14:19:54;19.90;99.90
7846;DHT22;3968;51.424;6.788;2022-09-09T14:22:21;20.00;99.90
7846;DHT22;3968;51.424;6.788;2022-09-09T14:24:47;19.90;99.90
7846;DHT22;3968;51.424;6.788;2022-09-09T14:27:13;19.70;99.90
7846;DHT22;3968;51.424;6.788;2022-09-09T14:29:39;19.60;99.90
7846;DHT22;3968;51.424;6.788;2022-09-09T14:32:05;19.50;99.90
7846;DHT22;3968;51.424;6.788;2022-09-09T14:34:30;19.40;99.90
7846;DHT22;3968;51.424;6.788;2022-09-09T14:36:58;19.30;99.90
7846;DHT22;3968;51.424;6.788;2022-09-09T14:39:24;19.10;99.90
7846;DHT22;3968;51.424;6.788;2022-09-09T14:41:49;19.00;99.90
7846;DHT22;3968;51.424;6.788;2022-09-09T14:44:15;16.60;99.90
7846;DHT22;3968;51.424;6.788;2022-09-09T14:46:41;15.80;99.90
7846;DHT22;3968;51.424;6.788;2022-09-09T14:49:08;15.80;99.90
7846;DHT22;3968;51.424;6.788;2022-09-09T14:51:36;15.50;99.90
7846;DHT22;3968;51.424;6.788;2022-09-09T14:54:01;15.60;99.90
7846;DHT22;3968;51.424;6.788;2022-09-09T14:56:30;15.40;99.90
7846;DHT22;3968;51.424;6.788;2022-09-09T14:58:58;15.20;99.90
7846;DHT22;3968;51.424;6.788;2022-09-09T15:01:24;15.40;99.90
7846;DHT22;3968;51.424;6.788;2022-09-09T15:03:58;15.20;99.90
7846;DHT22;3968;51.424;6.788;2022-09-09T15:06:25;15.20;99.90
7846;DHT22;3968;51.424;6.788;2022-09-09T15:08:53;15.30;99.90
7846;DHT22;3968;51.424;6.788;2022-09-09T15:11:19;15.40;99.90
7846;DHT22;3968;51.424;6.788;2022-09-09T15:13:46;15.40;99.90
7846;DHT22;3968;51.424;6.788;2022-09-09T15:16:17;15.50;99.90
7846;DHT22;3968;51.424;6.788;2022-09-09T15:18:44;15.50;99.90
7846;DHT22;3968;51.424;6.788;2022-09-09T15:21:16;15.60;99.90
7846;DHT22;3968;51.424;6.788;2022-09-09T15:23:42;15.60;99.90
7846;DHT22;3968;51.424;6.788;2022-09-09T15:26:09;15.50;99.90
7846;DHT22;3968;51.424;6.788;2022-09-09T15:28:36;15.50;99.90
7846;DHT22;3968;51.424;6.788;2022-09-09T15:31:06;15.70;99.90
7846;DHT22;3968;51.424;6.788;2022-09-09T15:33:32;15.70;99.90
7846;DHT22;3968;51.424;6.788;2022-09-09T15:35:59;15.80;99.90
7846;DHT22;3968;51.424;6.788;2022-09-09T15:38:24;15.90;99.90
7846;DHT22;3968;51.424;6.788;2022-09-09T15:40:54;16.00;99.90
7846;DHT22;3968;51.424;6.788;2022-09-09T15:43:20;16.20;99.90
7846;DHT22;3968;51.424;6.788;2022-09-09T15:45:53;16.30;99.90
7846;DHT22;3968;51.424;6.788;2022-09-09T15:48:25;16.40;99.90
7846;DHT22;3968;51.424;6.788;2022-09-09T15:51:03;16.50;99.90
7846;DHT22;3968;51.424;6.788;2022-09-09T15:53:29;16.60;99.90
7846;DHT22;3968;51.424;6.788;2022-09-09T15:55:56;16.60;99.90
7846;DHT22;3968;51.424;6.788;2022-09-09T15:58:21;16.60;99.90
7846;DHT22;3968;51.424;6.788;2022-09-09T16:00:47;16.60;99.90
7846;DHT22;3968;51.424;6.788;2022-09-09T16:03:13;16.70;99.90
7846;DHT22;3968;51.424;6.788;2022-09-09T16:05:38;16.60;99.90
7846;DHT22;3968;51.424;6.788;2022-09-09T16:08:04;16.60;99.90
7846;DHT22;3968;51.424;6.788;2022-09-09T16:10:29;16.60;99.90
7846;DHT22;3968;51.424;6.788;2022-09-09T16:12:56;16.60;99.90
7846;DHT22;3968;51.424;6.788;2022-09-09T16:15:21;16.60;99.90
7846;DHT22;3968;51.424;6.788;2022-09-09T16:17:48;16.70;99.90
7846;DHT22;3968;51.424;6.788;2022-09-09T16:20:14;16.70;99.90
7846;DHT22;3968;51.424;6.788;2022-09-09T16:22:40;16.70;99.90
7846;DHT22;3968;51.424;6.788;2022-09-09T16:25:06;16.70;99.90
7846;DHT22;3968;51.424;6.788;2022-09-09T16:27:31;16.80;99.90
7846;DHT22;3968;51.424;6.788;2022-09-09T16:29:57;16.80;99.90
7846;DHT22;3968;51.424;6.788;2022-09-09T16:32:23;16.90;99.90
7846;DHT22;3968;51.424;6.788;2022-09-09T16:34:48;17.00;99.90
7846;DHT22;3968;51.424;6.788;2022-09-09T16:37:14;16.90;99.90
7846;DHT22;3968;51.424;6.788;2022-09-09T16:39:40;17.00;99.90
7846;DHT22;3968;51.424;6.788;2022-09-09T16:42:05;17.00;99.90
7846;DHT22;3968;51.424;6.788;2022-09-09T16:44:31;17.00;99.90
7846;DHT22;3968;51.424;6.788;2022-09-09T16:46:56;17.00;99.90
7846;DHT22;3968;51.424;6.788;2022-09-09T16:49:22;17.00;99.90
7846;DHT22;3968;51.424;6.788;2022-09-09T16:51:50;17.10;99.90
7846;DHT22;3968;51.424;6.788;2022-09-09T16:54:19;17.00;99.90
7846;DHT22;3968;51.424;6.788;2022-09-09T16:56:47;17.00;99.90
7846;DHT22;3968;51.424;6.788;2022-09-09T16:59:18;17.10;99.90
7846;DHT22;3968;51.424;6.788;2022-09-09T17:01:45;17.00;99.90
7846;DHT22;3968;51.424;6.788;2022-09-09T17:04:13;17.10;99.90
7846;DHT22;3968;51.424;6.788;2022-09-09T17:06:40;17.00;99.90
7846;DHT22;3968;51.424;6.788;2022-09-09T17:09:10;17.10;99.90
7846;DHT22;3968;51.424;6.788;2022-09-09T17:11:37;17.00;99.90
7846;DHT22;3968;51.424;6.788;2022-09-09T17:14:04;17.00;99.90
7846;DHT22;3968;51.424;6.788;2022-09-09T17:16:31;16.90;99.90
7846;DHT22;3968;51.424;6.788;2022-09-09T17:18:59;16.90;99.90
7846;DHT22;3968;51.424;6.788;2022-09-09T17:21:27;16.80;99.90
7846;DHT22;3968;51.424;6.788;2022-09-09T17:23:54;16.80;99.90
7846;DHT22;3968;51.424;6.788;2022-09-09T17:26:22;16.80;99.90
7846;DHT22;3968;51.424;6.788;2022-09-09T17:28:48;16.80;99.90
7846;DHT22;3968;51.424;6.788;2022-09-09T17:31:16;16.70;99.90
7846;DHT22;3968;51.424;6.788;2022-09-09T17:33:44;16.70;99.90
7846;DHT22;3968;51.424;6.788;2022-09-09T17:36:16;16.70;99.90
7846;DHT22;3968;51.424;6.788;2022-09-09T17:38:43;16.70;99.90
7846;DHT22;3968;51.424;6.788;2022-09-09T17:41:17;16.70;99.90
7846;DHT22;3968;51.424;6.788;2022-09-09T17:43:43;16.60;99.90
7846;DHT22;3968;51.424;6.788;2022-09-09T17:46:23;16.60;99.90
7846;DHT22;3968;51.424;6.788;2022-09-09T17:48:51;16.60;99.90
7846;DHT22;3968;51.424;6.788;2022-09-09T17:51:19;16.60;99.90
7846;DHT22;3968;51.424;6.788;2022-09-09T17:53:49;16.60;99.90
7846;DHT22;3968;51.424;6.788;2022-09-09T17:56:18;16.60;99.90
7846;DHT22;3968;51.424;6.788;2022-09-09T17:58:46;16.60;99.90
7846;DHT22;3968;51.424;6.788;2022-09-09T18:01:15;16.60;99.90
7846;DHT22;3968;51.424;6.788;2022-09-09T18:03:42;16.60;99.90
7846;DHT22;3968;51.424;6.788;2022-09-09T18:06:14;16.60;99.90
7846;DHT22;3968;51.424;6.788;2022-09-09T18:08:41;16.60;99.90
7846;DHT22;3968;51.424;6.788;2022-09-09T18:11:07;16.70;99.90